createdAt,value
2023-05-07T00:03:27.333Z,46.82
2023-05-07T00:08:30.364Z,47.29
2023-05-07T00:13:36.426Z,47.04
2023-05-07T00:18:39.285Z,47.19
2023-05-07T00:23:42.078Z,47.19
2023-05-07T00:28:46.269Z,47.31
2023-05-07T00:33:49.091Z,47.36
2023-05-07T00:38:51.884Z,47.52
2023-05-07T00:43:56.116Z,47.45
2023-05-07T00:54:02.116Z,47.90
2023-05-07T00:59:06.393Z,47.83
2023-05-07T01:04:09.219Z,47.98
2023-05-07T01:09:12.600Z,48.19
2023-05-07T01:14:16.744Z,48.34
2023-05-07T01:19:19.762Z,48.50
2023-05-07T01:24:24.325Z,48.51
2023-05-07T01:29:27.491Z,48.85
2023-05-07T01:34:31.212Z,48.82
2023-05-07T01:39:35.546Z,49.06
2023-05-07T01:44:38.334Z,49.04
2023-05-07T01:49:41.160Z,49.03
2023-05-07T01:54:45.470Z,49.26
2023-05-07T01:59:48.390Z,49.48
2023-05-07T02:04:51.245Z,49.54
2023-05-07T02:09:56.841Z,49.86
2023-05-07T02:14:59.851Z,49.77
2023-05-07T02:20:04.760Z,50.05
2023-05-07T02:25:09.840Z,49.82
2023-05-07T02:30:13.356Z,50.12
2023-05-07T02:35:16.179Z,50.26
2023-05-07T02:40:20.846Z,50.30
2023-05-07T02:45:23.660Z,50.34
2023-05-07T02:50:29.280Z,50.68
2023-05-07T02:55:33.542Z,50.67
2023-05-07T03:00:36.741Z,50.80
2023-05-07T03:05:52.099Z,51.09
2023-05-07T03:10:56.282Z,50.92
2023-05-07T03:15:59.147Z,51.07
2023-05-07T03:21:02.060Z,51.17
2023-05-07T03:26:06.457Z,51.36
2023-05-07T03:31:09.445Z,51.42
2023-05-07T03:36:12.289Z,51.37
2023-05-07T03:41:16.519Z,51.72
2023-05-07T03:46:21.395Z,51.80
2023-05-07T03:51:24.659Z,51.80
2023-05-07T03:56:29.051Z,51.95
2023-05-07T04:01:34.013Z,51.77
2023-05-07T04:06:36.966Z,51.94
2023-05-07T04:11:41.889Z,51.98
2023-05-07T04:16:47.114Z,52.14
2023-05-07T04:21:50.556Z,52.04
2023-05-07T04:26:56.014Z,52.18
2023-05-07T04:31:59.832Z,52.16
2023-05-07T04:37:03.747Z,52.37
2023-05-07T04:42:09.779Z,52.29
2023-05-07T04:47:12.934Z,52.45
2023-05-07T04:52:16.278Z,52.34
2023-05-07T04:57:20.664Z,52.36
2023-05-07T05:02:24.514Z,52.59
2023-05-07T05:07:28.043Z,52.40
2023-05-07T05:12:32.555Z,52.35
2023-05-07T05:17:37.610Z,52.37
2023-05-07T05:22:41.601Z,52.33
2023-05-07T05:27:46.756Z,52.24
2023-05-07T05:32:50.383Z,52.36
2023-05-07T05:37:53.263Z,52.20
2023-05-07T05:42:57.500Z,52.11
2023-05-07T05:48:01.161Z,52.11
2023-05-07T05:53:05.931Z,52.08
2023-05-07T05:58:11.161Z,51.94
2023-05-07T06:03:17.778Z,51.81
2023-05-07T06:08:20.816Z,52.11
2023-05-07T06:13:26.693Z,51.99
2023-05-07T06:18:30.132Z,51.91
2023-05-07T06:23:33.320Z,51.80
2023-05-07T06:28:39.165Z,51.87
2023-05-07T06:33:46.545Z,51.97
2023-05-07T06:38:50.363Z,51.80
2023-05-07T06:43:54.627Z,51.80
2023-05-07T06:49:12.861Z,51.85
2023-05-07T06:54:16.191Z,51.87
2023-05-07T06:59:22.040Z,52.02
2023-05-07T07:04:26.290Z,51.85
2023-05-07T07:09:36.976Z,51.10
2023-05-07T07:14:43.416Z,50.07
2023-05-07T07:19:46.709Z,48.68
2023-05-07T07:24:49.847Z,48.07
2023-05-07T07:29:55.934Z,48.30
2023-05-07T07:34:59.687Z,48.45
2023-05-07T07:40:04.573Z,48.86
2023-05-07T07:45:10.924Z,48.72
2023-05-07T07:50:28.062Z,48.24
2023-05-07T07:55:40.484Z,48.36
2023-05-07T08:00:45.179Z,47.91
2023-05-07T08:05:50.680Z,48.03
2023-05-07T08:10:53.725Z,48.10
2023-05-07T08:16:05.332Z,48.37
2023-05-07T08:21:09.212Z,48.81
2023-05-07T08:26:12.427Z,48.64
2023-05-07T08:31:17.013Z,48.83
2023-05-07T08:36:21.721Z,48.98
2023-05-07T08:41:24.756Z,48.97
2023-05-07T08:46:29.198Z,49.20
2023-05-07T08:51:32.748Z,49.24
2023-05-07T08:56:36.488Z,49.23
2023-05-07T09:01:40.904Z,49.14
2023-05-07T09:06:43.812Z,49.30
2023-05-07T09:11:49.482Z,49.31
2023-05-07T09:16:57.165Z,49.49
2023-05-07T09:22:01.184Z,49.42
2023-05-07T09:27:06.810Z,49.36
2023-05-07T09:32:11.609Z,49.06
2023-05-07T09:37:15.355Z,48.93
2023-05-07T09:42:25.530Z,48.78
2023-05-07T09:47:31.102Z,48.74
2023-05-07T09:52:36.183Z,48.50
2023-05-07T09:57:41.082Z,48.28
2023-05-07T10:02:49.296Z,48.22
2023-05-07T10:07:54.090Z,47.85
2023-05-07T10:12:58.424Z,47.49
2023-05-07T10:18:09.292Z,47.52
2023-05-07T10:23:15.287Z,47.31
2023-05-07T10:28:21.974Z,47.46
2023-05-07T10:33:28.469Z,47.28
2023-05-07T10:38:32.224Z,47.43
2023-05-07T10:43:41.798Z,47.68
2023-05-07T10:49:13.246Z,47.71
2023-05-07T10:54:48.465Z,49.11
2023-05-07T10:59:55.187Z,48.92
2023-05-07T11:05:23.759Z,47.92
2023-05-07T11:10:52.809Z,41.85
2023-05-07T11:16:20.290Z,41.20
2023-05-07T11:21:37.036Z,43.16
2023-05-07T11:26:58.382Z,44.57
2023-05-07T11:32:04.160Z,44.48
2023-05-07T11:37:13.688Z,44.70
2023-05-07T11:42:29.954Z,45.08
2023-05-07T11:47:33.082Z,44.83
2023-05-07T11:52:37.562Z,45.02
2023-05-07T11:57:40.439Z,45.26
2023-05-07T12:02:44.009Z,45.63
2023-05-07T12:07:48.333Z,45.69
2023-05-07T12:12:51.310Z,45.79
2023-05-07T12:17:54.230Z,45.79
2023-05-07T12:22:58.493Z,45.61
2023-05-07T12:28:02.548Z,45.57
2023-05-07T12:33:05.494Z,45.55
2023-05-07T12:38:11.653Z,45.44
2023-05-07T12:43:18.422Z,45.41
2023-05-07T12:48:21.315Z,45.75
2023-05-07T12:53:26.933Z,45.55
2023-05-07T12:58:30.563Z,45.31
2023-05-07T13:03:34.369Z,45.32
2023-05-07T13:08:41.132Z,46.63
2023-05-07T13:13:44.152Z,46.72
2023-05-07T13:18:47.027Z,47.72
2023-05-07T13:23:51.362Z,48.89
2023-05-07T13:28:54.256Z,49.80
2023-05-07T13:33:57.243Z,48.23
2023-05-07T13:39:01.553Z,47.43
2023-05-07T13:44:04.360Z,47.06
2023-05-07T13:49:07.183Z,46.87
2023-05-07T13:54:11.415Z,46.80
2023-05-07T13:59:15.317Z,46.58
2023-05-07T14:04:18.211Z,46.60
2023-05-07T14:09:22.349Z,46.68
2023-05-07T14:14:25.177Z,46.97
2023-05-07T14:19:27.982Z,46.74
2023-05-07T14:24:38.140Z,46.18
2023-05-07T14:29:42.032Z,46.22
2023-05-07T14:34:44.790Z,45.75
2023-05-07T14:39:50.648Z,45.48
2023-05-07T14:44:54.097Z,45.38
2023-05-07T14:49:58.337Z,45.27
2023-05-07T14:55:02.547Z,44.58
2023-05-07T15:00:06.038Z,44.52
2023-05-07T15:05:09.638Z,44.27
2023-05-07T15:10:14.053Z,44.00
2023-05-07T15:15:16.819Z,43.52
2023-05-07T15:20:20.281Z,43.35
2023-05-07T15:25:24.865Z,42.49
2023-05-07T15:30:28.308Z,39.92
2023-05-07T15:35:31.401Z,37.24
2023-05-07T15:40:36.276Z,36.09
2023-05-07T15:45:40.783Z,37.75
2023-05-07T15:50:43.861Z,38.28
2023-05-07T15:55:49.524Z,37.15
2023-05-07T16:00:53.367Z,34.22
2023-05-07T16:05:57.718Z,33.38
2023-05-07T16:11:02.162Z,32.74
2023-05-07T16:16:06.404Z,34.25
2023-05-07T16:21:09.265Z,33.71
2023-05-07T16:26:14.529Z,34.20
2023-05-07T16:31:17.397Z,33.43
2023-05-07T16:36:20.254Z,33.53
2023-05-07T16:41:24.425Z,34.96
2023-05-07T16:46:27.463Z,33.73
2023-05-07T16:51:30.345Z,33.00
2023-05-07T16:56:34.615Z,32.84
2023-05-07T17:01:37.476Z,32.82
2023-05-07T17:06:40.341Z,32.85
2023-05-07T17:11:44.583Z,32.33
2023-05-07T17:16:47.429Z,32.85
2023-05-07T17:21:50.262Z,32.47
2023-05-07T17:26:54.505Z,32.70
2023-05-07T17:31:57.451Z,33.30
2023-05-07T17:37:00.491Z,34.62
2023-05-07T17:42:05.037Z,34.98
2023-05-07T17:47:08.449Z,35.29
2023-05-07T17:52:11.476Z,35.99
2023-05-07T17:57:15.705Z,36.12
2023-05-07T18:02:18.841Z,36.71
2023-05-07T18:07:21.646Z,36.62
2023-05-07T18:12:27.449Z,36.87
2023-05-07T18:17:30.680Z,37.66
2023-05-07T18:22:33.492Z,38.69
2023-05-07T18:27:37.769Z,39.32
2023-05-07T18:32:41.190Z,39.69
2023-05-07T18:37:44.657Z,40.23
2023-05-07T18:42:48.796Z,40.82
2023-05-07T18:47:51.854Z,40.73
2023-05-07T18:52:54.733Z,41.27
2023-05-07T18:57:58.943Z,41.64
2023-05-07T19:03:01.864Z,41.87
2023-05-07T19:08:04.785Z,41.76
2023-05-07T19:13:10.901Z,42.24
2023-05-07T19:18:14.836Z,42.18
2023-05-07T19:23:17.879Z,42.24
2023-05-07T19:28:24.312Z,41.97
2023-05-07T19:33:29.820Z,41.95
2023-05-07T19:38:32.587Z,42.01
2023-05-07T19:43:38.333Z,42.27
2023-05-07T19:48:41.165Z,41.90
2023-05-07T19:53:44.999Z,42.01
2023-05-07T19:58:49.462Z,41.88
2023-05-07T20:03:52.588Z,41.76
2023-05-07T20:08:55.926Z,41.82
2023-05-07T20:14:00.139Z,41.87
2023-05-07T20:19:02.974Z,41.93
2023-05-07T20:24:06.795Z,41.88
2023-05-07T20:29:10.927Z,42.04
2023-05-07T20:34:13.898Z,42.06
2023-05-07T20:39:17.046Z,41.70
2023-05-07T20:44:21.231Z,42.78
2023-05-07T20:49:24.317Z,42.83
2023-05-07T20:54:28.253Z,42.95
2023-05-07T20:59:34.786Z,43.14
2023-05-07T21:04:38.085Z,43.30
2023-05-07T21:09:42.287Z,43.28
2023-05-07T21:14:46.408Z,43.29
2023-05-07T21:19:49.989Z,43.17
2023-05-07T21:24:52.825Z,43.52
2023-05-07T21:30:03.141Z,43.43
2023-05-07T21:35:06.939Z,43.38
2023-05-07T21:40:10.858Z,43.39
2023-05-07T21:45:15.569Z,43.55
2023-05-07T21:50:18.717Z,43.70
2023-05-07T21:55:21.518Z,43.62
2023-05-07T22:00:26.317Z,43.86
2023-05-07T22:05:29.219Z,43.89
2023-05-07T22:10:32.056Z,43.89
2023-05-07T22:15:45.530Z,44.16
2023-05-07T22:20:56.326Z,44.53
2023-05-07T22:25:59.295Z,44.62
2023-05-07T22:31:03.526Z,44.81
2023-05-07T22:36:07.651Z,44.85
2023-05-07T22:41:10.472Z,45.15
2023-05-07T22:46:14.667Z,45.42
2023-05-07T22:51:17.584Z,45.59
2023-05-07T22:56:20.487Z,45.76
2023-05-07T23:01:24.653Z,46.05
2023-05-07T23:06:27.566Z,46.20
2023-05-07T23:11:30.392Z,46.22
2023-05-07T23:16:34.788Z,46.62
2023-05-07T23:21:37.596Z,46.83
2023-05-07T23:26:40.383Z,46.95
2023-05-07T23:31:44.594Z,47.30
2023-05-07T23:36:47.442Z,47.48
2023-05-07T23:41:50.245Z,47.40
2023-05-07T23:46:54.366Z,47.62
2023-05-07T23:51:57.116Z,47.65
2023-05-07T23:57:00.041Z,47.79
